sensor_id;sensor_type;location;lat;lon;timestamp;P1;durP1;ratioP1;P2;durP2;ratioP2
29314;SDS011;16320;53.954;9.506;2022-12-13T00:02:50;95.10;;;39.28;;
29314;SDS011;16320;53.954;9.506;2022-12-13T00:05:55;98.32;;;40.70;;
29314;SDS011;16320;53.954;9.506;2022-12-13T00:09:00;95.90;;;39.65;;
29314;SDS011;16320;53.954;9.506;2022-12-13T00:12:04;102.28;;;40.63;;
29314;SDS011;16320;53.954;9.506;2022-12-13T00:15:09;96.32;;;38.45;;
29314;SDS011;16320;53.954;9.506;2022-12-13T00:18:14;103.32;;;39.75;;
29314;SDS011;16320;53.954;9.506;2022-12-13T00:21:19;93.13;;;38.08;;
29314;SDS011;16320;53.954;9.506;2022-12-13T00:24:27;96.57;;;38.75;;
29314;SDS011;16320;53.954;9.506;2022-12-13T00:27:31;95.85;;;40.15;;
29314;SDS011;16320;53.954;9.506;2022-12-13T00:30:36;96.30;;;39.40;;
29314;SDS011;16320;53.954;9.506;2022-12-13T00:33:41;94.22;;;40.03;;
29314;SDS011;16320;53.954;9.506;2022-12-13T00:36:45;95.63;;;38.25;;
29314;SDS011;16320;53.954;9.506;2022-12-13T00:39:50;99.20;;;39.33;;
29314;SDS011;16320;53.954;9.506;2022-12-13T00:42:54;93.95;;;40.17;;
29314;SDS011;16320;53.954;9.506;2022-12-13T00:45:59;105.18;;;41.67;;
29314;SDS011;16320;53.954;9.506;2022-12-13T00:49:03;103.32;;;41.92;;
29314;SDS011;16320;53.954;9.506;2022-12-13T00:52:08;99.32;;;38.58;;
29314;SDS011;16320;53.954;9.506;2022-12-13T00:55:13;101.60;;;41.22;;
29314;SDS011;16320;53.954;9.506;2022-12-13T00:58:18;108.68;;;40.38;;
29314;SDS011;16320;53.954;9.506;2022-12-13T01:01:23;105.30;;;39.30;;
29314;SDS011;16320;53.954;9.506;2022-12-13T01:04:31;93.28;;;39.30;;
29314;SDS011;16320;53.954;9.506;2022-12-13T01:07:36;109.75;;;40.55;;
29314;SDS011;16320;53.954;9.506;2022-12-13T01:10:45;107.03;;;42.45;;
29314;SDS011;16320;53.954;9.506;2022-12-13T01:13:50;93.68;;;40.13;;
29314;SDS011;16320;53.954;9.506;2022-12-13T01:16:55;107.97;;;41.58;;
29314;SDS011;16320;53.954;9.506;2022-12-13T01:20:00;106.38;;;41.90;;
29314;SDS011;16320;53.954;9.506;2022-12-13T01:23:05;96.70;;;40.40;;
29314;SDS011;16320;53.954;9.506;2022-12-13T01:26:18;99.05;;;40.17;;
29314;SDS011;16320;53.954;9.506;2022-12-13T01:29:25;105.95;;;40.42;;
29314;SDS011;16320;53.954;9.506;2022-12-13T01:32:29;101.30;;;39.72;;
29314;SDS011;16320;53.954;9.506;2022-12-13T01:35:34;105.25;;;42.28;;
29314;SDS011;16320;53.954;9.506;2022-12-13T01:38:38;110.30;;;42.80;;
29314;SDS011;16320;53.954;9.506;2022-12-13T01:41:44;103.93;;;40.33;;
29314;SDS011;16320;53.954;9.506;2022-12-13T01:48:00;100.22;;;39.50;;
29314;SDS011;16320;53.954;9.506;2022-12-13T01:51:08;99.22;;;40.88;;
29314;SDS011;16320;53.954;9.506;2022-12-13T01:54:18;91.80;;;37.63;;
29314;SDS011;16320;53.954;9.506;2022-12-13T01:57:37;92.28;;;39.45;;
29314;SDS011;16320;53.954;9.506;2022-12-13T02:00:48;95.13;;;38.92;;
29314;SDS011;16320;53.954;9.506;2022-12-13T02:03:54;113.47;;;40.85;;
29314;SDS011;16320;53.954;9.506;2022-12-13T02:06:58;99.25;;;38.30;;
29314;SDS011;16320;53.954;9.506;2022-12-13T02:10:03;104.47;;;40.65;;
29314;SDS011;16320;53.954;9.506;2022-12-13T02:13:09;104.10;;;40.50;;
29314;SDS011;16320;53.954;9.506;2022-12-13T02:27:22;102.70;;;40.08;;
29314;SDS011;16320;53.954;9.506;2022-12-13T02:35:08;100.30;;;37.63;;
29314;SDS011;16320;53.954;9.506;2022-12-13T02:42:11;91.38;;;36.70;;
29314;SDS011;16320;53.954;9.506;2022-12-13T02:45:46;93.10;;;37.13;;
29314;SDS011;16320;53.954;9.506;2022-12-13T02:48:57;87.80;;;35.45;;
29314;SDS011;16320;53.954;9.506;2022-12-13T02:52:03;92.43;;;37.88;;
29314;SDS011;16320;53.954;9.506;2022-12-13T02:55:15;103.95;;;37.72;;
29314;SDS011;16320;53.954;9.506;2022-12-13T02:58:28;87.43;;;37.30;;
29314;SDS011;16320;53.954;9.506;2022-12-13T03:13:07;93.28;;;36.45;;
29314;SDS011;16320;53.954;9.506;2022-12-13T03:16:40;89.57;;;35.08;;
29314;SDS011;16320;53.954;9.506;2022-12-13T03:19:50;83.55;;;33.65;;
29314;SDS011;16320;53.954;9.506;2022-12-13T03:22:57;76.50;;;31.55;;
29314;SDS011;16320;53.954;9.506;2022-12-13T03:26:03;77.32;;;32.25;;
29314;SDS011;16320;53.954;9.506;2022-12-13T03:29:17;72.43;;;28.83;;
29314;SDS011;16320;53.954;9.506;2022-12-13T03:32:27;74.38;;;31.25;;
29314;SDS011;16320;53.954;9.506;2022-12-13T03:35:32;68.93;;;31.00;;
29314;SDS011;16320;53.954;9.506;2022-12-13T03:38:48;72.18;;;29.55;;
29314;SDS011;16320;53.954;9.506;2022-12-13T03:41:55;69.38;;;28.50;;
29314;SDS011;16320;53.954;9.506;2022-12-13T03:45:00;70.25;;;30.30;;
29314;SDS011;16320;53.954;9.506;2022-12-13T03:48:04;73.72;;;29.17;;
29314;SDS011;16320;53.954;9.506;2022-12-13T03:51:08;67.47;;;29.17;;
29314;SDS011;16320;53.954;9.506;2022-12-13T03:54:13;68.95;;;29.30;;
29314;SDS011;16320;53.954;9.506;2022-12-13T03:57:17;71.82;;;28.75;;
29314;SDS011;16320;53.954;9.506;2022-12-13T04:00:21;71.82;;;28.65;;
29314;SDS011;16320;53.954;9.506;2022-12-13T04:03:26;72.43;;;29.10;;
29314;SDS011;16320;53.954;9.506;2022-12-13T04:06:31;71.70;;;28.65;;
29314;SDS011;16320;53.954;9.506;2022-12-13T04:09:36;75.40;;;31.15;;
29314;SDS011;16320;53.954;9.506;2022-12-13T04:12:43;68.13;;;29.05;;
29314;SDS011;16320;53.954;9.506;2022-12-13T04:16:06;54.05;;;21.73;;
29314;SDS011;16320;53.954;9.506;2022-12-13T04:19:11;66.97;;;27.08;;
29314;SDS011;16320;53.954;9.506;2022-12-13T04:22:15;64.40;;;27.73;;
29314;SDS011;16320;53.954;9.506;2022-12-13T04:25:27;71.68;;;30.08;;
29314;SDS011;16320;53.954;9.506;2022-12-13T04:28:31;72.18;;;29.42;;
29314;SDS011;16320;53.954;9.506;2022-12-13T04:31:36;78.70;;;32.05;;
29314;SDS011;16320;53.954;9.506;2022-12-13T04:34:41;84.72;;;33.55;;
29314;SDS011;16320;53.954;9.506;2022-12-13T04:37:45;88.93;;;32.80;;
29314;SDS011;16320;53.954;9.506;2022-12-13T04:40:50;91.65;;;33.72;;
29314;SDS011;16320;53.954;9.506;2022-12-13T04:43:54;84.50;;;32.95;;
29314;SDS011;16320;53.954;9.506;2022-12-13T04:46:59;75.05;;;28.83;;
29314;SDS011;16320;53.954;9.506;2022-12-13T04:50:05;76.40;;;29.17;;
29314;SDS011;16320;53.954;9.506;2022-12-13T04:53:13;67.28;;;28.60;;
29314;SDS011;16320;53.954;9.506;2022-12-13T04:56:18;71.50;;;27.10;;
29314;SDS011;16320;53.954;9.506;2022-12-13T04:59:23;69.25;;;30.00;;
29314;SDS011;16320;53.954;9.506;2022-12-13T05:02:28;65.05;;;28.33;;
29314;SDS011;16320;53.954;9.506;2022-12-13T05:05:32;72.70;;;28.40;;
29314;SDS011;16320;53.954;9.506;2022-12-13T05:08:36;65.00;;;28.83;;
29314;SDS011;16320;53.954;9.506;2022-12-13T05:11:42;77.30;;;30.67;;
29314;SDS011;16320;53.954;9.506;2022-12-13T05:14:52;75.25;;;30.90;;
29314;SDS011;16320;53.954;9.506;2022-12-13T05:18:00;85.43;;;32.22;;
29314;SDS011;16320;53.954;9.506;2022-12-13T05:21:12;89.18;;;33.28;;
29314;SDS011;16320;53.954;9.506;2022-12-13T05:24:16;87.95;;;36.17;;
29314;SDS011;16320;53.954;9.506;2022-12-13T05:27:20;89.15;;;35.08;;
29314;SDS011;16320;53.954;9.506;2022-12-13T05:30:28;91.07;;;35.25;;
29314;SDS011;16320;53.954;9.506;2022-12-13T05:33:32;98.82;;;37.72;;
29314;SDS011;16320;53.954;9.506;2022-12-13T05:36:37;102.75;;;39.13;;
29314;SDS011;16320;53.954;9.506;2022-12-13T05:39:41;99.95;;;38.20;;
29314;SDS011;16320;53.954;9.506;2022-12-13T05:42:46;92.28;;;37.10;;
29314;SDS011;16320;53.954;9.506;2022-12-13T05:45:50;102.28;;;38.50;;
29314;SDS011;16320;53.954;9.506;2022-12-13T05:48:55;93.72;;;36.30;;
29314;SDS011;16320;53.954;9.506;2022-12-13T05:51:59;97.75;;;39.03;;
29314;SDS011;16320;53.954;9.506;2022-12-13T05:55:04;93.78;;;38.88;;
29314;SDS011;16320;53.954;9.506;2022-12-13T05:58:09;97.15;;;36.72;;
29314;SDS011;16320;53.954;9.506;2022-12-13T06:01:16;97.82;;;36.38;;
29314;SDS011;16320;53.954;9.506;2022-12-13T06:04:20;96.88;;;37.30;;
29314;SDS011;16320;53.954;9.506;2022-12-13T06:07:26;95.53;;;37.47;;
29314;SDS011;16320;53.954;9.506;2022-12-13T06:10:30;102.57;;;36.40;;
29314;SDS011;16320;53.954;9.506;2022-12-13T06:13:38;94.13;;;35.35;;
29314;SDS011;16320;53.954;9.506;2022-12-13T06:16:46;90.03;;;34.55;;
29314;SDS011;16320;53.954;9.506;2022-12-13T06:19:51;95.10;;;38.30;;
29314;SDS011;16320;53.954;9.506;2022-12-13T06:22:57;90.15;;;37.35;;
29314;SDS011;16320;53.954;9.506;2022-12-13T06:26:05;93.57;;;35.25;;
29314;SDS011;16320;53.954;9.506;2022-12-13T06:29:10;83.57;;;35.47;;
29314;SDS011;16320;53.954;9.506;2022-12-13T06:32:25;89.30;;;36.35;;
29314;SDS011;16320;53.954;9.506;2022-12-13T06:35:30;84.88;;;36.10;;
29314;SDS011;16320;53.954;9.506;2022-12-13T06:38:40;89.20;;;34.78;;
29314;SDS011;16320;53.954;9.506;2022-12-13T06:41:46;89.95;;;35.17;;
29314;SDS011;16320;53.954;9.506;2022-12-13T06:44:51;96.20;;;36.83;;
29314;SDS011;16320;53.954;9.506;2022-12-13T06:47:59;99.47;;;39.63;;
29314;SDS011;16320;53.954;9.506;2022-12-13T06:51:04;85.60;;;35.60;;
29314;SDS011;16320;53.954;9.506;2022-12-13T06:54:09;94.53;;;36.92;;
29314;SDS011;16320;53.954;9.506;2022-12-13T06:57:13;94.68;;;35.75;;
29314;SDS011;16320;53.954;9.506;2022-12-13T07:00:19;87.10;;;35.75;;
29314;SDS011;16320;53.954;9.506;2022-12-13T07:03:26;87.47;;;34.55;;
29314;SDS011;16320;53.954;9.506;2022-12-13T07:06:30;93.70;;;36.15;;
29314;SDS011;16320;53.954;9.506;2022-12-13T07:09:35;83.05;;;34.20;;
29314;SDS011;16320;53.954;9.506;2022-12-13T07:12:40;87.68;;;35.80;;
29314;SDS011;16320;53.954;9.506;2022-12-13T07:15:44;87.40;;;36.20;;
29314;SDS011;16320;53.954;9.506;2022-12-13T07:18:53;90.32;;;37.22;;
29314;SDS011;16320;53.954;9.506;2022-12-13T07:22:04;98.82;;;36.22;;
29314;SDS011;16320;53.954;9.506;2022-12-13T07:25:08;88.25;;;35.05;;
29314;SDS011;16320;53.954;9.506;2022-12-13T07:28:32;69.93;;;27.83;;
29314;SDS011;16320;53.954;9.506;2022-12-13T07:31:40;99.15;;;35.53;;
29314;SDS011;16320;53.954;9.506;2022-12-13T07:34:48;92.35;;;38.45;;
29314;SDS011;16320;53.954;9.506;2022-12-13T07:37:53;88.68;;;37.60;;
29314;SDS011;16320;53.954;9.506;2022-12-13T07:40:57;85.20;;;35.78;;
29314;SDS011;16320;53.954;9.506;2022-12-13T07:44:03;89.78;;;35.85;;
29314;SDS011;16320;53.954;9.506;2022-12-13T07:47:07;80.30;;;34.72;;
29314;SDS011;16320;53.954;9.506;2022-12-13T07:50:12;88.10;;;37.22;;
29314;SDS011;16320;53.954;9.506;2022-12-13T07:53:28;93.00;;;36.45;;
29314;SDS011;16320;53.954;9.506;2022-12-13T07:56:36;96.82;;;38.15;;
29314;SDS011;16320;53.954;9.506;2022-12-13T07:59:40;91.70;;;37.55;;
29314;SDS011;16320;53.954;9.506;2022-12-13T08:02:44;93.18;;;37.13;;
29314;SDS011;16320;53.954;9.506;2022-12-13T08:05:56;97.50;;;41.83;;
29314;SDS011;16320;53.954;9.506;2022-12-13T08:09:09;148.23;;;64.30;;
29314;SDS011;16320;53.954;9.506;2022-12-13T08:12:13;111.00;;;45.13;;
29314;SDS011;16320;53.954;9.506;2022-12-13T08:15:25;98.65;;;38.05;;
29314;SDS011;16320;53.954;9.506;2022-12-13T08:18:30;93.88;;;37.72;;
29314;SDS011;16320;53.954;9.506;2022-12-13T08:21:38;83.30;;;35.95;;
29314;SDS011;16320;53.954;9.506;2022-12-13T08:25:04;93.30;;;37.92;;
29314;SDS011;16320;53.954;9.506;2022-12-13T08:28:09;83.07;;;35.63;;
29314;SDS011;16320;53.954;9.506;2022-12-13T08:31:14;82.38;;;34.92;;
29314;SDS011;16320;53.954;9.506;2022-12-13T08:34:18;84.47;;;35.78;;
29314;SDS011;16320;53.954;9.506;2022-12-13T08:37:22;87.25;;;35.97;;
29314;SDS011;16320;53.954;9.506;2022-12-13T08:40:27;83.25;;;36.00;;
29314;SDS011;16320;53.954;9.506;2022-12-13T08:43:32;91.75;;;39.72;;
29314;SDS011;16320;53.954;9.506;2022-12-13T08:46:36;78.55;;;33.38;;
29314;SDS011;16320;53.954;9.506;2022-12-13T08:49:40;85.95;;;36.05;;
29314;SDS011;16320;53.954;9.506;2022-12-13T08:52:44;81.63;;;35.83;;
29314;SDS011;16320;53.954;9.506;2022-12-13T08:55:49;84.47;;;33.90;;
29314;SDS011;16320;53.954;9.506;2022-12-13T08:58:53;83.38;;;35.35;;
29314;SDS011;16320;53.954;9.506;2022-12-13T09:01:57;88.78;;;35.40;;
29314;SDS011;16320;53.954;9.506;2022-12-13T09:05:08;92.88;;;39.63;;
29314;SDS011;16320;53.954;9.506;2022-12-13T09:08:14;82.63;;;36.78;;
29314;SDS011;16320;53.954;9.506;2022-12-13T09:11:27;87.45;;;39.55;;
29314;SDS011;16320;53.954;9.506;2022-12-13T09:14:41;77.28;;;35.17;;
29314;SDS011;16320;53.954;9.506;2022-12-13T09:17:48;80.47;;;34.40;;
29314;SDS011;16320;53.954;9.506;2022-12-13T09:20:55;79.97;;;34.72;;
29314;SDS011;16320;53.954;9.506;2022-12-13T09:24:14;75.70;;;35.13;;
29314;SDS011;16320;53.954;9.506;2022-12-13T09:27:27;84.40;;;34.42;;
29314;SDS011;16320;53.954;9.506;2022-12-13T09:30:32;79.38;;;35.63;;
29314;SDS011;16320;53.954;9.506;2022-12-13T09:33:37;75.32;;;33.42;;
29314;SDS011;16320;53.954;9.506;2022-12-13T09:36:44;79.00;;;35.42;;
29314;SDS011;16320;53.954;9.506;2022-12-13T09:39:49;80.93;;;34.08;;
29314;SDS011;16320;53.954;9.506;2022-12-13T09:42:58;75.13;;;33.92;;
29314;SDS011;16320;53.954;9.506;2022-12-13T09:46:21;76.28;;;33.42;;
29314;SDS011;16320;53.954;9.506;2022-12-13T09:49:48;77.57;;;33.53;;
29314;SDS011;16320;53.954;9.506;2022-12-13T09:52:57;84.43;;;35.42;;
29314;SDS011;16320;53.954;9.506;2022-12-13T09:56:03;83.97;;;36.58;;
29314;SDS011;16320;53.954;9.506;2022-12-13T09:59:13;81.03;;;35.97;;
29314;SDS011;16320;53.954;9.506;2022-12-13T10:02:28;82.53;;;33.47;;
29314;SDS011;16320;53.954;9.506;2022-12-13T10:05:36;81.03;;;35.00;;
29314;SDS011;16320;53.954;9.506;2022-12-13T10:08:44;88.78;;;36.85;;
29314;SDS011;16320;53.954;9.506;2022-12-13T10:12:00;89.82;;;37.63;;
29314;SDS011;16320;53.954;9.506;2022-12-13T10:15:04;96.20;;;38.08;;
29314;SDS011;16320;53.954;9.506;2022-12-13T10:18:12;100.28;;;38.47;;
29314;SDS011;16320;53.954;9.506;2022-12-13T10:21:31;86.13;;;36.78;;
29314;SDS011;16320;53.954;9.506;2022-12-13T10:24:58;98.70;;;38.88;;
29314;SDS011;16320;53.954;9.506;2022-12-13T10:28:08;92.10;;;38.65;;
29314;SDS011;16320;53.954;9.506;2022-12-13T10:31:16;93.35;;;39.33;;
29314;SDS011;16320;53.954;9.506;2022-12-13T10:34:24;86.28;;;36.38;;
29314;SDS011;16320;53.954;9.506;2022-12-13T10:37:32;91.75;;;38.80;;
29314;SDS011;16320;53.954;9.506;2022-12-13T10:40:38;91.90;;;38.42;;
29314;SDS011;16320;53.954;9.506;2022-12-13T10:44:06;103.82;;;40.15;;
29314;SDS011;16320;53.954;9.506;2022-12-13T10:47:28;91.22;;;38.55;;
29314;SDS011;16320;53.954;9.506;2022-12-13T10:50:32;96.05;;;38.65;;
29314;SDS011;16320;53.954;9.506;2022-12-13T10:53:38;98.95;;;39.55;;
29314;SDS011;16320;53.954;9.506;2022-12-13T10:56:52;101.65;;;41.95;;
29314;SDS011;16320;53.954;9.506;2022-12-13T11:00:12;102.10;;;41.05;;
29314;SDS011;16320;53.954;9.506;2022-12-13T11:03:40;98.35;;;42.00;;
29314;SDS011;16320;53.954;9.506;2022-12-13T11:06:45;111.30;;;43.38;;
29314;SDS011;16320;53.954;9.506;2022-12-13T11:09:50;99.88;;;42.03;;
29314;SDS011;16320;53.954;9.506;2022-12-13T11:12:58;101.70;;;40.58;;
29314;SDS011;16320;53.954;9.506;2022-12-13T11:16:19;96.18;;;41.13;;
29314;SDS011;16320;53.954;9.506;2022-12-13T11:19:37;94.82;;;40.90;;
29314;SDS011;16320;53.954;9.506;2022-12-13T11:22:48;96.15;;;41.05;;
29314;SDS011;16320;53.954;9.506;2022-12-13T11:25:53;98.68;;;42.00;;
29314;SDS011;16320;53.954;9.506;2022-12-13T11:36:27;90.05;;;37.40;;
29314;SDS011;16320;53.954;9.506;2022-12-13T11:39:46;94.43;;;40.42;;
29314;SDS011;16320;53.954;9.506;2022-12-13T11:46:45;85.40;;;39.50;;
29314;SDS011;16320;53.954;9.506;2022-12-13T11:50:02;89.93;;;39.25;;
29314;SDS011;16320;53.954;9.506;2022-12-13T11:53:29;93.97;;;40.25;;
29314;SDS011;16320;53.954;9.506;2022-12-13T11:56:42;83.03;;;37.60;;
29314;SDS011;16320;53.954;9.506;2022-12-13T11:59:49;96.55;;;39.05;;
29314;SDS011;16320;53.954;9.506;2022-12-13T12:06:49;87.22;;;38.08;;
29314;SDS011;16320;53.954;9.506;2022-12-13T12:10:36;87.22;;;38.88;;
29314;SDS011;16320;53.954;9.506;2022-12-13T12:17:43;86.85;;;38.58;;
29314;SDS011;16320;53.954;9.506;2022-12-13T12:28:26;87.07;;;40.08;;
29314;SDS011;16320;53.954;9.506;2022-12-13T12:39:53;92.25;;;40.63;;
29314;SDS011;16320;53.954;9.506;2022-12-13T12:46:44;103.95;;;42.15;;
29314;SDS011;16320;53.954;9.506;2022-12-13T12:50:38;106.53;;;44.55;;
29314;SDS011;16320;53.954;9.506;2022-12-13T12:54:21;95.25;;;42.17;;
29314;SDS011;16320;53.954;9.506;2022-12-13T12:57:45;85.40;;;37.58;;
29314;SDS011;16320;53.954;9.506;2022-12-13T13:01:23;74.20;;;31.55;;
29314;SDS011;16320;53.954;9.506;2022-12-13T13:04:52;89.22;;;39.90;;
29314;SDS011;16320;53.954;9.506;2022-12-13T13:08:11;95.70;;;44.00;;
29314;SDS011;16320;53.954;9.506;2022-12-13T13:11:23;95.53;;;44.97;;
29314;SDS011;16320;53.954;9.506;2022-12-13T13:14:32;101.55;;;45.95;;
29314;SDS011;16320;53.954;9.506;2022-12-13T13:20:48;109.60;;;46.33;;
29314;SDS011;16320;53.954;9.506;2022-12-13T13:24:28;109.80;;;45.28;;
29314;SDS011;16320;53.954;9.506;2022-12-13T13:27:44;103.80;;;42.78;;
29314;SDS011;16320;53.954;9.506;2022-12-13T13:34:26;110.57;;;46.42;;
29314;SDS011;16320;53.954;9.506;2022-12-13T13:37:45;108.18;;;47.00;;
29314;SDS011;16320;53.954;9.506;2022-12-13T13:40:50;103.20;;;43.38;;
29314;SDS011;16320;53.954;9.506;2022-12-13T13:43:55;111.65;;;46.05;;
29314;SDS011;16320;53.954;9.506;2022-12-13T13:47:15;106.30;;;46.63;;
29314;SDS011;16320;53.954;9.506;2022-12-13T13:58:03;110.40;;;44.67;;
29314;SDS011;16320;53.954;9.506;2022-12-13T14:28:04;118.05;;;47.10;;
29314;SDS011;16320;53.954;9.506;2022-12-13T14:31:45;120.80;;;47.88;;
29314;SDS011;16320;53.954;9.506;2022-12-13T14:34:51;120.32;;;48.00;;
29314;SDS011;16320;53.954;9.506;2022-12-13T14:38:00;118.88;;;44.75;;
29314;SDS011;16320;53.954;9.506;2022-12-13T14:41:15;114.50;;;46.42;;
29314;SDS011;16320;53.954;9.506;2022-12-13T14:44:30;121.50;;;48.75;;
29314;SDS011;16320;53.954;9.506;2022-12-13T14:47:41;107.55;;;46.63;;
29314;SDS011;16320;53.954;9.506;2022-12-13T14:50:46;118.88;;;48.80;;
29314;SDS011;16320;53.954;9.506;2022-12-13T14:53:52;120.03;;;45.92;;
29314;SDS011;16320;53.954;9.506;2022-12-13T14:56:58;124.07;;;47.55;;
29314;SDS011;16320;53.954;9.506;2022-12-13T15:00:22;114.95;;;45.78;;
29314;SDS011;16320;53.954;9.506;2022-12-13T15:03:38;114.18;;;45.42;;
29314;SDS011;16320;53.954;9.506;2022-12-13T15:06:43;125.03;;;46.33;;
29314;SDS011;16320;53.954;9.506;2022-12-13T15:09:55;116.18;;;44.97;;
29314;SDS011;16320;53.954;9.506;2022-12-13T15:13:03;119.43;;;44.42;;
29314;SDS011;16320;53.954;9.506;2022-12-13T15:16:22;108.90;;;43.40;;
29314;SDS011;16320;53.954;9.506;2022-12-13T15:19:30;126.45;;;44.65;;
29314;SDS011;16320;53.954;9.506;2022-12-13T15:22:42;112.93;;;42.63;;
29314;SDS011;16320;53.954;9.506;2022-12-13T15:25:57;117.70;;;44.00;;
29314;SDS011;16320;53.954;9.506;2022-12-13T15:29:32;110.00;;;42.47;;
29314;SDS011;16320;53.954;9.506;2022-12-13T15:33:00;118.85;;;43.70;;
29314;SDS011;16320;53.954;9.506;2022-12-13T15:39:33;117.75;;;46.13;;
29314;SDS011;16320;53.954;9.506;2022-12-13T15:42:51;117.45;;;43.38;;
29314;SDS011;16320;53.954;9.506;2022-12-13T15:45:55;118.60;;;44.80;;
29314;SDS011;16320;53.954;9.506;2022-12-13T15:49:00;113.57;;;44.58;;
29314;SDS011;16320;53.954;9.506;2022-12-13T15:58:35;118.10;;;45.95;;
29314;SDS011;16320;53.954;9.506;2022-12-13T16:01:40;115.40;;;44.03;;
29314;SDS011;16320;53.954;9.506;2022-12-13T16:04:45;116.30;;;45.13;;
29314;SDS011;16320;53.954;9.506;2022-12-13T16:07:50;116.65;;;43.78;;
29314;SDS011;16320;53.954;9.506;2022-12-13T16:10:59;113.47;;;42.60;;
29314;SDS011;16320;53.954;9.506;2022-12-13T16:17:34;104.53;;;43.28;;
29314;SDS011;16320;53.954;9.506;2022-12-13T16:20:38;116.65;;;43.03;;
29314;SDS011;16320;53.954;9.506;2022-12-13T16:23:43;110.63;;;43.45;;
29314;SDS011;16320;53.954;9.506;2022-12-13T16:26:51;114.20;;;42.88;;
29314;SDS011;16320;53.954;9.506;2022-12-13T16:29:56;116.72;;;44.50;;
29314;SDS011;16320;53.954;9.506;2022-12-13T16:33:01;109.82;;;42.72;;
29314;SDS011;16320;53.954;9.506;2022-12-13T16:36:27;112.63;;;42.85;;
29314;SDS011;16320;53.954;9.506;2022-12-13T16:39:31;114.90;;;44.08;;
29314;SDS011;16320;53.954;9.506;2022-12-13T16:42:35;108.10;;;42.78;;
29314;SDS011;16320;53.954;9.506;2022-12-13T16:45:41;122.38;;;45.08;;
29314;SDS011;16320;53.954;9.506;2022-12-13T16:48:50;113.10;;;44.15;;
29314;SDS011;16320;53.954;9.506;2022-12-13T16:51:56;111.72;;;42.05;;
29314;SDS011;16320;53.954;9.506;2022-12-13T16:55:01;107.57;;;39.67;;
29314;SDS011;16320;53.954;9.506;2022-12-13T16:58:08;103.63;;;41.03;;
29314;SDS011;16320;53.954;9.506;2022-12-13T17:01:19;125.63;;;43.53;;
29314;SDS011;16320;53.954;9.506;2022-12-13T17:04:24;126.28;;;42.25;;
29314;SDS011;16320;53.954;9.506;2022-12-13T17:07:31;125.25;;;43.88;;
29314;SDS011;16320;53.954;9.506;2022-12-13T17:10:38;127.95;;;45.95;;
29314;SDS011;16320;53.954;9.506;2022-12-13T17:13:46;110.07;;;41.00;;
29314;SDS011;16320;53.954;9.506;2022-12-13T17:16:52;118.97;;;42.65;;
29314;SDS011;16320;53.954;9.506;2022-12-13T17:19:58;111.97;;;40.85;;
29314;SDS011;16320;53.954;9.506;2022-12-13T17:23:03;117.80;;;42.28;;
29314;SDS011;16320;53.954;9.506;2022-12-13T17:26:09;119.30;;;41.78;;
29314;SDS011;16320;53.954;9.506;2022-12-13T17:29:16;123.47;;;43.28;;
29314;SDS011;16320;53.954;9.506;2022-12-13T17:32:25;115.15;;;42.58;;
29314;SDS011;16320;53.954;9.506;2022-12-13T17:35:31;123.70;;;42.70;;
29314;SDS011;16320;53.954;9.506;2022-12-13T17:38:36;123.07;;;43.72;;
29314;SDS011;16320;53.954;9.506;2022-12-13T17:41:44;119.10;;;42.97;;
29314;SDS011;16320;53.954;9.506;2022-12-13T17:44:58;126.22;;;43.13;;
29314;SDS011;16320;53.954;9.506;2022-12-13T17:48:03;121.43;;;44.47;;
29314;SDS011;16320;53.954;9.506;2022-12-13T17:51:08;123.03;;;43.33;;
29314;SDS011;16320;53.954;9.506;2022-12-13T17:54:14;128.25;;;45.00;;
29314;SDS011;16320;53.954;9.506;2022-12-13T17:57:18;138.70;;;43.72;;
29314;SDS011;16320;53.954;9.506;2022-12-13T18:00:23;118.10;;;44.30;;
29314;SDS011;16320;53.954;9.506;2022-12-13T18:03:29;127.20;;;43.35;;
29314;SDS011;16320;53.954;9.506;2022-12-13T18:06:33;138.95;;;45.20;;
29314;SDS011;16320;53.954;9.506;2022-12-13T18:09:39;126.53;;;45.78;;
29314;SDS011;16320;53.954;9.506;2022-12-13T18:12:43;140.80;;;47.15;;
29314;SDS011;16320;53.954;9.506;2022-12-13T18:15:49;144.57;;;47.53;;
29314;SDS011;16320;53.954;9.506;2022-12-13T18:18:55;152.05;;;47.78;;
29314;SDS011;16320;53.954;9.506;2022-12-13T18:25:31;138.85;;;47.40;;
29314;SDS011;16320;53.954;9.506;2022-12-13T18:28:36;133.20;;;46.17;;
29314;SDS011;16320;53.954;9.506;2022-12-13T18:31:42;128.57;;;45.50;;
29314;SDS011;16320;53.954;9.506;2022-12-13T18:34:46;138.75;;;48.83;;
29314;SDS011;16320;53.954;9.506;2022-12-13T18:37:57;144.57;;;48.95;;
29314;SDS011;16320;53.954;9.506;2022-12-13T18:41:05;161.75;;;51.80;;
29314;SDS011;16320;53.954;9.506;2022-12-13T18:44:17;146.70;;;49.67;;
29314;SDS011;16320;53.954;9.506;2022-12-13T18:47:24;141.90;;;50.38;;
29314;SDS011;16320;53.954;9.506;2022-12-13T18:50:30;164.55;;;52.20;;
29314;SDS011;16320;53.954;9.506;2022-12-13T18:53:37;160.43;;;51.38;;
29314;SDS011;16320;53.954;9.506;2022-12-13T18:56:43;159.15;;;55.33;;
29314;SDS011;16320;53.954;9.506;2022-12-13T18:59:47;145.80;;;51.85;;
29314;SDS011;16320;53.954;9.506;2022-12-13T19:02:57;155.88;;;55.33;;
29314;SDS011;16320;53.954;9.506;2022-12-13T19:06:04;158.20;;;52.60;;
29314;SDS011;16320;53.954;9.506;2022-12-13T19:09:13;139.23;;;53.03;;
29314;SDS011;16320;53.954;9.506;2022-12-13T19:12:17;154.40;;;56.70;;
29314;SDS011;16320;53.954;9.506;2022-12-13T19:15:22;156.18;;;56.70;;
29314;SDS011;16320;53.954;9.506;2022-12-13T19:18:26;145.15;;;54.83;;
29314;SDS011;16320;53.954;9.506;2022-12-13T19:21:30;155.25;;;56.50;;
29314;SDS011;16320;53.954;9.506;2022-12-13T19:24:35;137.70;;;50.88;;
29314;SDS011;16320;53.954;9.506;2022-12-13T19:27:39;137.38;;;52.38;;
29314;SDS011;16320;53.954;9.506;2022-12-13T19:30:45;134.45;;;50.92;;
29314;SDS011;16320;53.954;9.506;2022-12-13T19:33:50;131.40;;;49.47;;
29314;SDS011;16320;53.954;9.506;2022-12-13T19:36:55;131.32;;;50.97;;
29314;SDS011;16320;53.954;9.506;2022-12-13T19:40:07;133.27;;;49.78;;
29314;SDS011;16320;53.954;9.506;2022-12-13T19:43:12;141.40;;;50.38;;
29314;SDS011;16320;53.954;9.506;2022-12-13T19:46:17;129.77;;;51.58;;
29314;SDS011;16320;53.954;9.506;2022-12-13T19:49:23;131.02;;;50.22;;
29314;SDS011;16320;53.954;9.506;2022-12-13T19:52:27;125.40;;;49.25;;
29314;SDS011;16320;53.954;9.506;2022-12-13T19:55:32;125.10;;;47.30;;
29314;SDS011;16320;53.954;9.506;2022-12-13T19:58:37;116.68;;;47.08;;
29314;SDS011;16320;53.954;9.506;2022-12-13T20:01:43;122.72;;;47.63;;
29314;SDS011;16320;53.954;9.506;2022-12-13T20:04:49;136.57;;;52.33;;
29314;SDS011;16320;53.954;9.506;2022-12-13T20:07:54;116.22;;;49.13;;
29314;SDS011;16320;53.954;9.506;2022-12-13T20:11:05;129.68;;;50.03;;
29314;SDS011;16320;53.954;9.506;2022-12-13T20:14:16;115.22;;;46.38;;
29314;SDS011;16320;53.954;9.506;2022-12-13T20:17:20;123.15;;;46.88;;
29314;SDS011;16320;53.954;9.506;2022-12-13T20:20:25;111.65;;;44.08;;
29314;SDS011;16320;53.954;9.506;2022-12-13T20:23:49;111.72;;;44.85;;
29314;SDS011;16320;53.954;9.506;2022-12-13T20:26:56;111.75;;;46.83;;
29314;SDS011;16320;53.954;9.506;2022-12-13T20:30:00;109.97;;;42.45;;